createdAt,value
2023-05-13T00:01:49.989Z,11.90
2023-05-13T00:04:21.679Z,11.03
2023-05-13T00:06:52.685Z,10.18
2023-05-13T00:09:23.774Z,12.28
2023-05-13T00:11:54.798Z,8.88
2023-05-13T00:14:30.915Z,13.95
2023-05-13T00:17:04.891Z,10.25
2023-05-13T00:19:35.908Z,7.50
2023-05-13T00:22:07.285Z,7.47
2023-05-13T00:24:38.440Z,9.78
2023-05-13T00:27:09.789Z,7.37
2023-05-13T00:29:40.867Z,11.22
2023-05-13T00:32:11.865Z,9.33
2023-05-13T00:34:42.869Z,6.67
2023-05-13T00:37:15.286Z,6.85
2023-05-13T00:39:46.276Z,21.33
2023-05-13T00:42:18.606Z,7.83
2023-05-13T00:44:49.582Z,9.13
2023-05-13T00:47:20.662Z,6.50
2023-05-13T00:49:51.810Z,9.18
2023-05-13T00:52:22.756Z,5.95
2023-05-13T00:54:54.082Z,11.57
2023-05-13T00:57:25.407Z,9.80
2023-05-13T00:59:57.181Z,7.90
2023-05-13T01:02:36.655Z,10.53
2023-05-13T01:05:28.478Z,8.68
2023-05-13T01:08:04.441Z,7.80
2023-05-13T01:10:40.864Z,7.50
2023-05-13T01:13:14.367Z,9.50
2023-05-13T01:15:54.595Z,8.53
2023-05-13T01:18:31.051Z,9.10
2023-05-13T01:21:04.380Z,7.95
2023-05-13T01:23:35.694Z,9.63
2023-05-13T01:26:06.693Z,7.53
2023-05-13T01:28:38.714Z,12.85
2023-05-13T01:31:11.999Z,8.60
2023-05-13T01:33:44.359Z,7.20
2023-05-13T01:36:15.524Z,11.12
2023-05-13T01:38:47.290Z,7.80
2023-05-13T01:41:18.349Z,11.68
2023-05-13T01:43:49.300Z,8.33
2023-05-13T01:46:20.988Z,10.72
2023-05-13T01:48:52.106Z,7.15
2023-05-13T01:51:23.144Z,7.87
2023-05-13T01:53:54.258Z,9.53
2023-05-13T01:56:25.442Z,10.58
2023-05-13T01:58:56.412Z,8.18
2023-05-13T02:01:28.139Z,11.40
2023-05-13T02:04:01.863Z,11.95
2023-05-13T02:06:33.297Z,12.93
2023-05-13T02:09:04.414Z,15.25
2023-05-13T02:11:36.788Z,11.30
2023-05-13T02:14:08.043Z,10.13
2023-05-13T02:16:40.570Z,12.23
2023-05-13T02:19:13.081Z,9.48
2023-05-13T02:21:49.579Z,8.85
2023-05-13T02:24:23.404Z,7.97
2023-05-13T02:26:55.052Z,11.00
2023-05-13T02:29:26.045Z,13.00
2023-05-13T02:31:59.060Z,10.35
2023-05-13T02:34:30.520Z,9.33
2023-05-13T02:37:01.646Z,13.03
2023-05-13T02:39:32.799Z,9.80
2023-05-13T02:42:04.083Z,8.90
2023-05-13T02:44:35.041Z,10.28
2023-05-13T02:47:06.097Z,9.80
2023-05-13T02:49:37.234Z,10.13
2023-05-13T02:52:08.667Z,9.93
2023-05-13T02:54:39.774Z,9.18
2023-05-13T02:57:11.118Z,9.95
2023-05-13T02:59:43.643Z,9.38
2023-05-13T03:02:18.235Z,11.85
2023-05-13T03:04:50.233Z,10.60
2023-05-13T03:07:24.769Z,10.30
2023-05-13T03:09:58.266Z,9.45
2023-05-13T03:12:29.403Z,10.20
2023-05-13T03:15:03.567Z,10.05
2023-05-13T03:17:34.592Z,10.30
2023-05-13T03:20:05.848Z,14.83
2023-05-13T03:22:38.983Z,10.35
2023-05-13T03:25:09.792Z,12.25
2023-05-13T03:27:42.712Z,9.58
2023-05-13T03:30:17.709Z,9.35
2023-05-13T03:32:49.134Z,9.05
2023-05-13T03:35:20.200Z,11.33
2023-05-13T03:37:53.506Z,10.15
2023-05-13T03:40:24.800Z,10.70
2023-05-13T03:42:56.462Z,9.93
2023-05-13T03:45:30.574Z,10.80
2023-05-13T03:48:01.685Z,11.18
2023-05-13T03:50:32.690Z,10.72
2023-05-13T03:53:04.302Z,13.62
2023-05-13T03:55:36.100Z,13.90
2023-05-13T03:58:15.550Z,9.53
2023-05-13T04:00:50.023Z,11.20
2023-05-13T04:03:24.631Z,11.88
2023-05-13T04:05:57.398Z,11.10
2023-05-13T04:08:30.942Z,10.85
2023-05-13T04:11:01.964Z,10.63
2023-05-13T04:13:33.381Z,11.03
2023-05-13T04:16:04.692Z,11.93
2023-05-13T04:18:36.964Z,12.28
2023-05-13T04:21:12.957Z,11.10
2023-05-13T04:23:46.482Z,13.68
2023-05-13T04:26:17.965Z,14.03
2023-05-13T04:28:49.336Z,12.50
2023-05-13T04:31:20.557Z,10.23
2023-05-13T04:33:51.936Z,11.15
2023-05-13T04:36:22.940Z,11.25
2023-05-13T04:38:55.704Z,10.95
2023-05-13T04:41:26.874Z,10.80
2023-05-13T04:43:58.256Z,11.97
2023-05-13T04:46:29.625Z,10.43
2023-05-13T04:49:01.045Z,10.32
2023-05-13T04:51:33.588Z,13.53
2023-05-13T04:54:05.065Z,11.30
2023-05-13T04:56:36.085Z,10.72
2023-05-13T04:59:07.335Z,13.45
2023-05-13T05:01:41.766Z,27.98
2023-05-13T05:04:13.910Z,20.32
2023-05-13T05:06:46.696Z,17.55
2023-05-13T05:09:19.025Z,15.28
2023-05-13T05:11:51.595Z,14.65
2023-05-13T05:14:23.014Z,18.80
2023-05-13T05:16:54.460Z,18.25
2023-05-13T05:19:28.790Z,17.32
2023-05-13T05:22:02.432Z,12.00
2023-05-13T05:24:33.773Z,11.45
2023-05-13T05:27:07.731Z,14.28
2023-05-13T05:29:38.713Z,15.40
2023-05-13T05:32:10.435Z,12.30
2023-05-13T05:34:42.117Z,12.10
2023-05-13T05:37:13.949Z,14.55
2023-05-13T05:39:47.986Z,11.35
2023-05-13T05:42:19.024Z,9.70
2023-05-13T05:44:50.302Z,9.95
2023-05-13T05:47:22.090Z,8.58
2023-05-13T05:49:53.811Z,8.90
2023-05-13T05:52:24.998Z,9.75
2023-05-13T05:54:56.406Z,8.40
2023-05-13T05:57:27.511Z,8.50
2023-05-13T05:59:58.873Z,5.92
2023-05-13T06:02:30.606Z,13.15
2023-05-13T06:05:01.767Z,5.25
2023-05-13T06:07:32.987Z,7.65
2023-05-13T06:10:05.024Z,7.20
2023-05-13T06:12:39.581Z,7.90
2023-05-13T06:15:14.441Z,7.80
2023-05-13T06:17:45.534Z,6.25
2023-05-13T06:20:16.584Z,6.60
2023-05-13T06:22:47.621Z,6.40
2023-05-13T06:25:18.764Z,7.22
2023-05-13T06:27:49.789Z,7.22
2023-05-13T06:30:25.583Z,6.03
2023-05-13T06:33:01.664Z,5.30
2023-05-13T06:35:29.000Z,6.10
2023-05-13T06:38:00.122Z,8.15
2023-05-13T06:40:31.903Z,8.45
2023-05-13T06:43:03.293Z,8.45
2023-05-13T06:45:34.443Z,6.05
2023-05-13T06:48:05.462Z,5.67
2023-05-13T06:50:37.841Z,7.62
2023-05-13T06:53:08.951Z,6.05
2023-05-13T06:55:41.350Z,7.10
2023-05-13T06:58:15.376Z,8.35
2023-05-13T07:00:47.728Z,7.22
2023-05-13T07:03:25.815Z,9.60
2023-05-13T07:06:00.599Z,7.05
2023-05-13T07:08:32.044Z,8.65
2023-05-13T07:11:03.110Z,6.22
2023-05-13T07:13:35.895Z,6.17
2023-05-13T07:16:08.062Z,7.35
2023-05-13T07:18:39.093Z,5.30
2023-05-13T07:21:13.536Z,5.87
2023-05-13T07:23:45.852Z,4.25
2023-05-13T07:26:16.859Z,3.98
2023-05-13T07:28:56.113Z,3.90
2023-05-13T07:31:30.714Z,3.90
2023-05-13T07:34:08.738Z,3.52
2023-05-13T07:36:43.640Z,3.35
2023-05-13T07:39:15.231Z,3.05
2023-05-13T07:41:47.557Z,3.92
2023-05-13T07:44:26.648Z,3.15
2023-05-13T07:46:57.650Z,3.72
2023-05-13T07:49:29.255Z,3.83
2023-05-13T07:52:00.244Z,3.90
2023-05-13T07:54:32.060Z,5.80
2023-05-13T07:57:03.108Z,6.20
2023-05-13T07:59:34.265Z,4.00
2023-05-13T08:02:08.971Z,4.65
2023-05-13T08:04:43.210Z,5.08
2023-05-13T08:07:14.162Z,4.03
2023-05-13T08:09:48.293Z,5.28
2023-05-13T08:12:19.113Z,5.80
2023-05-13T08:14:53.199Z,6.35
2023-05-13T08:17:24.527Z,5.60
2023-05-13T08:19:55.735Z,7.10
2023-05-13T08:22:28.634Z,5.25
2023-05-13T08:25:01.006Z,6.17
2023-05-13T08:27:32.255Z,4.80
2023-05-13T08:30:06.047Z,5.67
2023-05-13T08:32:37.524Z,7.90
2023-05-13T08:35:09.221Z,6.35
2023-05-13T08:37:41.556Z,6.10
2023-05-13T08:40:16.944Z,6.60
2023-05-13T08:42:51.595Z,8.68
2023-05-13T08:45:24.303Z,6.70
2023-05-13T08:48:03.818Z,8.65
2023-05-13T08:50:38.172Z,5.28
2023-05-13T08:53:10.070Z,6.37
2023-05-13T08:55:42.340Z,6.40
2023-05-13T08:58:13.547Z,5.30
2023-05-13T09:00:44.605Z,7.03
2023-05-13T09:03:16.953Z,4.65
2023-05-13T09:05:48.390Z,7.25
2023-05-13T09:08:20.425Z,9.13
2023-05-13T09:10:51.710Z,6.67
2023-05-13T09:13:23.903Z,8.45
2023-05-13T09:15:55.650Z,9.18
2023-05-13T09:18:29.228Z,6.95
2023-05-13T09:21:00.300Z,8.60
2023-05-13T09:23:31.776Z,9.78
2023-05-13T09:26:02.864Z,10.45
2023-05-13T09:28:34.607Z,7.90
2023-05-13T09:31:06.260Z,9.28
2023-05-13T09:33:37.756Z,10.10
2023-05-13T09:36:10.777Z,9.25
2023-05-13T09:38:42.014Z,8.20
2023-05-13T09:41:13.650Z,8.63
2023-05-13T09:43:46.148Z,9.03
2023-05-13T09:46:17.136Z,8.03
2023-05-13T09:48:48.174Z,9.63
2023-05-13T09:51:19.431Z,10.35
2023-05-13T09:53:50.784Z,10.55
2023-05-13T09:56:27.364Z,12.33
2023-05-13T09:58:57.880Z,13.35
2023-05-13T10:01:30.704Z,9.18
2023-05-13T10:04:02.284Z,11.57
2023-05-13T10:06:34.498Z,9.78
2023-05-13T10:09:06.870Z,11.48
2023-05-13T10:11:38.160Z,9.00
2023-05-13T10:14:10.025Z,13.30
2023-05-13T10:16:41.169Z,13.50
2023-05-13T10:19:13.164Z,9.65
2023-05-13T10:21:45.838Z,11.78
2023-05-13T10:24:16.934Z,9.23
2023-05-13T10:26:51.320Z,10.45
2023-05-13T10:29:29.083Z,11.97
2023-05-13T10:32:03.364Z,11.75
2023-05-13T10:34:36.027Z,11.15
2023-05-13T10:37:24.839Z,12.15
2023-05-13T10:40:17.979Z,12.37
2023-05-13T10:42:50.885Z,9.10
2023-05-13T10:45:21.854Z,8.85
2023-05-13T10:47:53.831Z,11.33
2023-05-13T10:50:28.588Z,11.97
2023-05-13T10:53:00.940Z,10.50
2023-05-13T10:55:31.929Z,9.08
2023-05-13T10:58:13.586Z,8.20
2023-05-13T11:00:46.985Z,12.30
2023-05-13T11:03:28.806Z,11.22
2023-05-13T11:06:07.288Z,13.55
2023-05-13T11:08:42.789Z,9.55
2023-05-13T11:11:28.363Z,9.95
2023-05-13T11:14:03.833Z,9.45
2023-05-13T11:16:35.970Z,9.30
2023-05-13T11:19:08.785Z,13.38
2023-05-13T11:21:57.326Z,12.60
2023-05-13T11:24:28.997Z,14.93
2023-05-13T11:27:01.583Z,12.35
2023-05-13T11:29:38.373Z,11.80
2023-05-13T11:34:40.213Z,13.03
2023-05-13T11:37:15.312Z,16.30
2023-05-13T11:39:46.576Z,13.22
2023-05-13T11:42:20.794Z,15.40
2023-05-13T11:44:53.590Z,15.20
2023-05-13T11:47:29.464Z,14.93
2023-05-13T11:50:03.885Z,16.70
2023-05-13T11:52:35.915Z,16.50
2023-05-13T11:55:08.167Z,15.53
2023-05-13T11:57:39.250Z,12.98
2023-05-13T12:00:12.054Z,14.43
2023-05-13T12:02:45.093Z,12.93
2023-05-13T12:05:16.279Z,15.43
2023-05-13T12:07:53.637Z,13.28
2023-05-13T12:10:25.865Z,15.48
2023-05-13T12:12:57.374Z,14.30
2023-05-13T12:15:28.333Z,17.60
2023-05-13T12:17:59.354Z,16.97
2023-05-13T12:20:30.687Z,17.90
2023-05-13T12:23:03.238Z,18.77
2023-05-13T12:25:42.473Z,12.37
2023-05-13T12:28:18.966Z,12.40
2023-05-13T12:30:58.341Z,11.73
2023-05-13T12:33:31.102Z,16.35
2023-05-13T12:36:36.578Z,13.05
2023-05-13T12:39:30.651Z,12.60
2023-05-13T12:42:02.649Z,14.03
2023-05-13T12:44:34.847Z,16.05
2023-05-13T12:47:09.217Z,11.95
2023-05-13T12:50:06.230Z,15.63
2023-05-13T12:55:35.034Z,13.20
2023-05-13T12:58:04.541Z,16.32
2023-05-13T13:00:40.785Z,12.07
2023-05-13T13:03:11.502Z,15.35
2023-05-13T13:05:42.540Z,14.13
2023-05-13T13:08:13.617Z,11.30
2023-05-13T13:10:45.921Z,14.18
2023-05-13T13:13:17.093Z,15.43
2023-05-13T13:15:52.421Z,12.65
2023-05-13T13:18:23.534Z,13.65
2023-05-13T13:21:01.937Z,13.68
2023-05-13T13:23:34.155Z,12.45
2023-05-13T13:26:28.346Z,16.87
2023-05-13T13:28:47.193Z,14.33
2023-05-13T13:31:24.598Z,13.55
2023-05-13T13:36:31.359Z,13.88
2023-05-13T13:39:33.756Z,12.93
2023-05-13T13:42:57.836Z,11.57
2023-05-13T13:45:12.176Z,14.20
2023-05-13T13:46:59.698Z,13.32
2023-05-13T13:49:40.598Z,13.10
2023-05-13T13:52:16.633Z,12.95
2023-05-13T13:55:06.619Z,15.13
2023-05-13T13:57:25.124Z,12.15
2023-05-13T14:00:03.486Z,13.58
2023-05-13T14:02:35.730Z,12.75
2023-05-13T14:05:08.610Z,14.43
2023-05-13T14:07:43.801Z,14.38
2023-05-13T14:10:26.323Z,13.05
2023-05-13T14:12:57.449Z,12.15
2023-05-13T14:15:59.825Z,10.93
2023-05-13T14:18:13.959Z,14.05
2023-05-13T14:21:00.910Z,11.65
2023-05-13T14:23:37.949Z,12.07
2023-05-13T14:26:08.787Z,12.93
2023-05-13T14:29:01.177Z,13.28
2023-05-13T14:31:42.873Z,13.00
2023-05-13T14:34:14.771Z,11.90
2023-05-13T14:37:01.948Z,11.97
2023-05-13T14:40:52.948Z,10.28
2023-05-13T14:42:11.926Z,11.73
2023-05-13T14:47:20.396Z,14.55
2023-05-13T14:49:51.608Z,15.00
2023-05-13T14:52:26.669Z,11.55
2023-05-13T14:55:03.386Z,14.47
2023-05-13T15:00:12.622Z,13.10
2023-05-13T15:02:43.037Z,14.40
2023-05-13T15:05:14.599Z,12.80
2023-05-13T15:07:49.782Z,14.40
2023-05-13T15:10:22.445Z,13.08
2023-05-13T15:12:56.294Z,14.83
2023-05-13T15:15:28.763Z,14.93
2023-05-13T15:20:54.890Z,13.85
2023-05-13T15:27:05.121Z,13.40
2023-05-13T15:29:10.486Z,14.70
2023-05-13T15:31:34.294Z,14.40
2023-05-13T15:34:08.054Z,14.95
2023-05-13T15:36:39.697Z,15.60
2023-05-13T15:39:17.903Z,13.03
2023-05-13T15:41:56.305Z,15.45
2023-05-13T15:44:31.140Z,11.93
2023-05-13T15:47:08.806Z,14.75
2023-05-13T15:58:57.977Z,12.30
2023-05-13T16:11:29.209Z,14.43
2023-05-13T16:30:40.860Z,12.50
2023-05-13T16:33:13.242Z,12.88
2023-05-13T16:35:44.321Z,11.90
2023-05-13T16:38:21.182Z,12.90
2023-05-13T16:41:13.969Z,11.45
2023-05-13T16:43:49.991Z,10.20
2023-05-13T16:46:20.630Z,16.07
2023-05-13T16:48:51.897Z,10.78
2023-05-13T16:51:23.057Z,14.28
2023-05-13T16:53:55.444Z,13.25
2023-05-13T16:56:29.731Z,11.93
2023-05-13T16:59:00.310Z,11.73
2023-05-13T17:01:31.488Z,15.23
2023-05-13T17:04:02.718Z,15.03
2023-05-13T17:06:33.869Z,13.80
2023-05-13T17:09:06.853Z,13.53
2023-05-13T17:11:37.687Z,12.75
2023-05-13T17:14:10.131Z,12.00
2023-05-13T17:16:43.132Z,12.55
2023-05-13T17:19:14.207Z,12.13
2023-05-13T17:21:45.932Z,14.03
2023-05-13T17:24:17.049Z,12.40
2023-05-13T17:26:48.229Z,11.45
2023-05-13T17:29:20.618Z,12.78
2023-05-13T17:31:52.989Z,16.32
2023-05-13T17:34:24.070Z,13.18
2023-05-13T17:36:55.220Z,14.18
2023-05-13T17:39:28.147Z,15.68
2023-05-13T17:41:59.294Z,11.38
2023-05-13T17:44:32.085Z,10.32
2023-05-13T17:47:04.558Z,11.63
2023-05-13T17:49:35.610Z,10.72
2023-05-13T17:52:07.783Z,8.93
2023-05-13T17:54:38.942Z,12.10
2023-05-13T17:57:11.308Z,9.88
2023-05-13T17:59:42.361Z,12.28
2023-05-13T18:02:13.383Z,11.50
2023-05-13T18:04:44.501Z,11.15
2023-05-13T18:07:15.530Z,10.08
2023-05-13T18:09:50.782Z,12.45
2023-05-13T18:12:22.533Z,12.45
2023-05-13T18:14:53.600Z,15.28
2023-05-13T18:17:24.953Z,9.93
2023-05-13T18:19:55.928Z,13.83
2023-05-13T18:22:27.309Z,12.73
2023-05-13T18:24:58.366Z,13.40
2023-05-13T18:27:29.328Z,13.85
2023-05-13T18:30:02.101Z,13.08
2023-05-13T18:32:32.736Z,12.07
2023-05-13T18:35:03.982Z,13.70
2023-05-13T18:37:35.055Z,11.28
2023-05-13T18:40:06.181Z,13.40
2023-05-13T18:42:37.190Z,12.05
2023-05-13T18:45:09.055Z,11.93
2023-05-13T18:47:40.244Z,9.88
2023-05-13T18:50:12.082Z,10.65
2023-05-13T18:52:43.063Z,11.30
2023-05-13T18:55:14.159Z,9.78
2023-05-13T18:57:45.179Z,12.90
2023-05-13T19:00:16.758Z,10.80
2023-05-13T19:02:48.009Z,14.98
2023-05-13T19:05:20.506Z,10.75
2023-05-13T19:07:51.799Z,12.98
2023-05-13T19:10:23.368Z,11.03
2023-05-13T19:12:54.819Z,9.08
2023-05-13T19:15:26.397Z,11.65
2023-05-13T19:17:57.494Z,10.82
2023-05-13T19:20:30.254Z,11.65
2023-05-13T19:23:01.259Z,15.58
2023-05-13T19:25:32.238Z,15.55
2023-05-13T19:28:03.674Z,11.83
2023-05-13T19:30:34.704Z,12.25
2023-05-13T19:33:06.627Z,12.85
2023-05-13T19:35:38.234Z,14.23
2023-05-13T19:38:09.212Z,12.03
2023-05-13T19:40:40.184Z,10.53
2023-05-13T19:43:11.372Z,14.05
2023-05-13T19:45:42.574Z,13.48
2023-05-13T19:48:14.575Z,11.28
2023-05-13T19:50:45.722Z,12.85
2023-05-13T19:53:16.817Z,13.88
2023-05-13T19:55:47.928Z,12.95
2023-05-13T19:58:19.086Z,9.90
2023-05-13T20:00:50.391Z,11.10
2023-05-13T20:03:21.665Z,11.83
2023-05-13T20:05:54.250Z,10.90
2023-05-13T20:08:26.587Z,12.40
2023-05-13T20:10:57.562Z,10.72
2023-05-13T20:13:28.627Z,10.63
2023-05-13T20:15:59.625Z,9.83
2023-05-13T20:18:32.324Z,11.22
2023-05-13T20:21:03.849Z,10.08
2023-05-13T20:23:35.330Z,10.70
2023-05-13T20:26:06.553Z,11.53
2023-05-13T20:28:37.995Z,12.03
2023-05-13T20:31:09.184Z,9.95
2023-05-13T20:33:40.285Z,9.85
2023-05-13T20:36:11.323Z,11.50
2023-05-13T20:38:42.486Z,12.37
2023-05-13T20:41:13.553Z,10.45
2023-05-13T20:43:44.668Z,14.00
2023-05-13T20:46:17.296Z,12.00
2023-05-13T20:48:49.053Z,11.05
2023-05-13T20:51:20.056Z,14.78
2023-05-13T20:53:51.069Z,14.43
2023-05-13T20:56:23.275Z,14.78
2023-05-13T20:58:55.190Z,13.08
2023-05-13T21:01:26.357Z,12.05
2023-05-13T21:03:58.778Z,13.43
2023-05-13T21:06:31.194Z,10.70
2023-05-13T21:09:02.249Z,15.50
2023-05-13T21:11:36.316Z,11.97
2023-05-13T21:14:07.389Z,15.28
2023-05-13T21:16:38.522Z,13.60
2023-05-13T21:19:09.725Z,13.78
2023-05-13T21:21:40.881Z,13.28
2023-05-13T21:24:12.514Z,13.62
2023-05-13T21:26:43.508Z,11.95
2023-05-13T21:29:19.448Z,10.60
2023-05-13T21:31:50.767Z,13.47
2023-05-13T21:34:21.926Z,13.55
2023-05-13T21:36:53.021Z,12.13
2023-05-13T21:39:24.163Z,13.62
2023-05-13T21:41:55.870Z,15.65
2023-05-13T21:44:26.886Z,12.70
2023-05-13T21:46:58.133Z,12.35
2023-05-13T21:49:30.357Z,15.58
2023-05-13T21:52:03.353Z,13.72
2023-05-13T21:54:34.334Z,14.15
2023-05-13T21:57:06.714Z,13.13
2023-05-13T21:59:38.530Z,9.70
2023-05-13T22:02:13.960Z,11.35
2023-05-13T22:04:45.214Z,11.95
2023-05-13T22:07:16.389Z,10.65
2023-05-13T22:09:49.663Z,13.03
2023-05-13T22:12:20.153Z,13.50
2023-05-13T22:14:51.324Z,12.18
2023-05-13T22:17:23.463Z,16.65
2023-05-13T22:19:54.734Z,14.13
2023-05-13T22:22:25.811Z,12.88
2023-05-13T22:24:57.281Z,13.22
2023-05-13T22:27:28.360Z,13.30
2023-05-13T22:30:00.372Z,12.65
2023-05-13T22:32:31.611Z,12.13
2023-05-13T22:35:02.889Z,10.98
2023-05-13T22:37:34.037Z,10.78
2023-05-13T22:40:05.111Z,12.18
2023-05-13T22:42:36.205Z,14.58
2023-05-13T22:45:07.882Z,15.03
2023-05-13T22:47:39.201Z,12.73
2023-05-13T22:50:10.912Z,12.13
2023-05-13T22:52:42.048Z,10.60
2023-05-13T22:55:13.253Z,13.80
2023-05-13T22:57:44.370Z,11.78
2023-05-13T23:00:35.761Z,14.45
2023-05-13T23:03:06.940Z,9.70
2023-05-13T23:05:38.052Z,8.95
2023-05-13T23:08:09.193Z,10.50
2023-05-13T23:10:40.235Z,14.07
2023-05-13T23:13:11.351Z,11.38
2023-05-13T23:15:42.459Z,11.40
2023-05-13T23:18:13.566Z,12.15
2023-05-13T23:20:44.764Z,12.43
2023-05-13T23:23:15.807Z,13.15
2023-05-13T23:25:50.799Z,12.90
2023-05-13T23:28:22.147Z,13.60
2023-05-13T23:30:58.777Z,15.03
2023-05-13T23:33:29.851Z,16.42
2023-05-13T23:36:00.880Z,11.85
2023-05-13T23:38:32.148Z,12.03
2023-05-13T23:41:03.278Z,14.38
2023-05-13T23:43:34.423Z,12.20
2023-05-13T23:46:05.506Z,9.60
2023-05-13T23:48:36.721Z,11.38
2023-05-13T23:51:08.350Z,9.75
2023-05-13T23:53:39.583Z,11.97
2023-05-13T23:56:10.882Z,10.10
2023-05-13T23:58:42.078Z,13.80
